createdAt,value
2019-03-27T00:00:47.551Z,87.76
2019-03-27T00:01:47.548Z,87.76
2019-03-27T00:03:40.455Z,87.66
2019-03-27T00:04:40.461Z,88.04
2019-03-27T00:06:33.870Z,87.47
2019-03-27T00:07:33.864Z,87.57
2019-03-27T00:09:27.268Z,87.57
2019-03-27T00:10:27.281Z,87.76
2019-03-27T00:12:20.185Z,87.57
2019-03-27T00:13:20.185Z,87.47
2019-03-27T00:15:13.936Z,87.57
2019-03-27T00:16:13.100Z,87.57
2019-03-27T00:18:06.003Z,87.28
2019-03-27T00:19:06.008Z,87.28
2019-03-27T00:20:58.913Z,87.66
2019-03-27T00:21:58.915Z,88.04
2019-03-27T00:23:51.818Z,87.85
2019-03-27T00:24:51.832Z,87.95
2019-03-27T00:26:44.732Z,88.04
2019-03-27T00:27:44.734Z,87.85
2019-03-27T00:29:38.204Z,87.85
2019-03-27T00:30:38.156Z,87.95
2019-03-27T00:32:31.057Z,88.04
2019-03-27T00:33:31.059Z,87.76
2019-03-27T00:35:23.977Z,88.13
2019-03-27T00:36:23.973Z,88.23
2019-03-27T00:38:16.869Z,88.33
2019-03-27T00:39:16.878Z,88.33
2019-03-27T00:41:09.795Z,88.52
2019-03-27T00:42:09.792Z,88.33
2019-03-27T00:44:02.692Z,88.61
2019-03-27T00:45:02.703Z,89.00
2019-03-27T00:46:55.608Z,88.52
2019-03-27T00:47:55.610Z,89.00
2019-03-27T00:49:48.522Z,89.00
2019-03-27T00:50:48.533Z,89.00
2019-03-27T00:52:41.433Z,88.61
2019-03-27T00:53:41.437Z,88.61
2019-03-27T00:55:34.350Z,88.90
2019-03-27T00:56:34.350Z,89.28
2019-03-27T00:58:27.250Z,89.37
2019-03-27T00:59:27.264Z,89.37
2019-03-27T01:01:20.170Z,89.33
2019-03-27T01:02:20.169Z,89.42
2019-03-27T01:04:13.071Z,90.09
2019-03-27T01:05:13.078Z,89.75
2019-03-27T01:07:05.990Z,89.90
2019-03-27T01:08:05.986Z,89.94
2019-03-27T01:09:58.909Z,89.75
2019-03-27T01:10:58.901Z,89.52
2019-03-27T01:12:51.817Z,89.90
2019-03-27T01:13:51.808Z,90.28
2019-03-27T01:15:44.712Z,90.28
2019-03-27T01:16:44.716Z,90.28
2019-03-27T01:18:37.618Z,90.56
2019-03-27T01:19:37.624Z,90.66
2019-03-27T01:21:30.538Z,90.47
2019-03-27T01:22:30.539Z,90.75
2019-03-27T01:24:23.438Z,90.85
2019-03-27T01:25:23.447Z,90.66
2019-03-27T01:27:16.357Z,90.56
2019-03-27T01:28:16.358Z,91.13
2019-03-27T01:30:09.749Z,91.23
2019-03-27T01:31:09.761Z,91.52
2019-03-27T01:33:02.681Z,91.04
2019-03-27T01:34:02.673Z,91.52
2019-03-27T01:35:56.069Z,91.04
2019-03-27T01:36:56.076Z,91.42
2019-03-27T01:38:48.992Z,91.61
2019-03-27T01:39:48.988Z,91.52
2019-03-27T01:41:41.893Z,91.61
2019-03-27T01:42:41.897Z,92.08
2019-03-27T01:44:34.798Z,91.80
2019-03-27T01:45:34.807Z,92.08
2019-03-27T01:47:27.720Z,91.89
2019-03-27T01:48:27.716Z,91.80
2019-03-27T01:50:20.621Z,91.61
2019-03-27T01:51:20.626Z,91.61
2019-03-27T01:53:13.533Z,91.23
2019-03-27T01:54:13.534Z,91.23
2019-03-27T01:56:06.435Z,91.42
2019-03-27T01:57:06.439Z,91.61
2019-03-27T01:58:59.344Z,91.33
2019-03-27T01:59:59.348Z,91.80
2019-03-27T02:01:52.252Z,91.89
2019-03-27T02:02:52.254Z,91.71
2019-03-27T02:04:45.166Z,92.56
2019-03-27T02:05:45.170Z,92.08
2019-03-27T02:07:38.076Z,92.37
2019-03-27T02:08:38.080Z,92.66
2019-03-27T02:10:30.979Z,93.51
2019-03-27T02:11:30.988Z,92.85
2019-03-27T02:13:23.888Z,93.51
2019-03-27T02:14:23.892Z,93.32
2019-03-27T02:16:16.795Z,93.23
2019-03-27T02:17:16.799Z,93.32
2019-03-27T02:19:09.699Z,93.32
2019-03-27T02:20:09.707Z,93.23
2019-03-27T02:22:02.613Z,93.41
2019-03-27T02:23:02.614Z,93.51
2019-03-27T02:24:55.523Z,93.41
2019-03-27T02:25:55.530Z,93.70
2019-03-27T02:27:48.437Z,93.70
2019-03-27T02:28:48.433Z,93.60
2019-03-27T02:30:41.337Z,93.70
2019-03-27T02:31:41.344Z,93.60
2019-03-27T02:33:34.245Z,93.60
2019-03-27T02:34:34.251Z,93.89
2019-03-27T02:36:27.158Z,93.23
2019-03-27T02:37:27.159Z,93.51
2019-03-27T02:39:20.053Z,93.51
2019-03-27T02:40:20.073Z,93.51
2019-03-27T02:42:12.975Z,93.41
2019-03-27T02:43:12.978Z,93.32
2019-03-27T02:45:05.876Z,93.41
2019-03-27T02:46:23.376Z,93.41
2019-03-27T02:47:58.791Z,93.51
2019-03-27T02:48:58.791Z,93.60
2019-03-27T02:50:51.706Z,93.89
2019-03-27T02:51:51.703Z,93.70
2019-03-27T02:53:44.601Z,93.51
2019-03-27T02:54:44.654Z,93.70
2019-03-27T02:56:37.517Z,94.18
2019-03-27T02:57:37.520Z,94.93
2019-03-27T02:59:30.416Z,94.37
2019-03-27T03:00:30.430Z,94.74
2019-03-27T03:02:23.463Z,95.98
2019-03-27T03:03:23.337Z,96.03
2019-03-27T03:05:16.237Z,97.55
2019-03-27T03:06:16.241Z,96.98
2019-03-27T03:08:09.171Z,97.45
2019-03-27T03:09:09.171Z,97.55
2019-03-27T03:11:02.079Z,98.40
2019-03-27T03:12:02.081Z,99.44
2019-03-27T03:13:54.980Z,99.35
2019-03-27T03:14:54.992Z,99.64
2019-03-27T03:16:47.901Z,99.99
2019-03-27T03:17:47.894Z,99.92
2019-03-27T03:19:41.285Z,99.99
2019-03-27T03:20:41.295Z,99.99
2019-03-27T03:22:34.692Z,99.99
2019-03-27T03:23:34.723Z,99.92
2019-03-27T03:25:27.597Z,99.99
2019-03-27T03:26:27.604Z,99.99
2019-03-27T03:28:20.522Z,99.35
2019-03-27T03:29:20.514Z,99.44
2019-03-27T03:31:13.429Z,99.16
2019-03-27T03:32:13.419Z,99.54
2019-03-27T03:34:06.476Z,99.64
2019-03-27T03:35:06.344Z,99.99
2019-03-27T03:36:59.236Z,99.99
2019-03-27T03:37:59.239Z,99.99
2019-03-27T03:39:52.140Z,99.99
2019-03-27T03:40:52.148Z,99.99
2019-03-27T03:42:45.051Z,99.99
2019-03-27T03:43:45.065Z,99.99
2019-03-27T03:45:37.957Z,99.99
2019-03-27T03:46:37.961Z,99.50
2019-03-27T03:48:30.867Z,99.59
2019-03-27T03:49:30.872Z,99.59
2019-03-27T03:51:23.771Z,99.59
2019-03-27T03:52:23.776Z,99.11
2019-03-27T03:54:16.679Z,99.26
2019-03-27T03:55:16.689Z,98.83
2019-03-27T03:57:09.599Z,98.64
2019-03-27T03:58:09.588Z,98.74
2019-03-27T04:00:02.493Z,98.88
2019-03-27T04:01:02.492Z,99.54
2019-03-27T04:02:55.399Z,99.26
2019-03-27T04:03:55.403Z,99.40
2019-03-27T04:05:48.316Z,99.78
2019-03-27T04:06:48.308Z,98.74
2019-03-27T04:08:41.214Z,98.83
2019-03-27T04:09:41.218Z,98.74
2019-03-27T04:11:34.124Z,98.69
2019-03-27T04:12:34.141Z,98.79
2019-03-27T04:14:27.022Z,99.54
2019-03-27T04:15:27.034Z,99.16
2019-03-27T04:17:19.940Z,99.73
2019-03-27T04:18:19.945Z,99.54
2019-03-27T04:20:12.841Z,99.73
2019-03-27T04:21:12.850Z,99.73
2019-03-27T04:23:05.758Z,99.64
2019-03-27T04:24:05.757Z,99.26
2019-03-27T04:26:09.794Z,99.54
2019-03-27T04:26:58.666Z,99.64
2019-03-27T04:28:51.560Z,99.26
2019-03-27T04:29:51.569Z,99.44
2019-03-27T04:31:44.486Z,99.44
2019-03-27T04:32:44.472Z,99.35
2019-03-27T04:34:37.377Z,99.99
2019-03-27T04:35:37.490Z,99.99
2019-03-27T04:37:30.284Z,99.99
2019-03-27T04:38:30.287Z,99.35
2019-03-27T04:40:23.207Z,99.64
2019-03-27T04:41:23.216Z,99.64
2019-03-27T04:43:16.121Z,99.73
2019-03-27T04:44:16.123Z,99.73
2019-03-27T04:46:09.031Z,99.83
2019-03-27T04:47:09.028Z,99.54
2019-03-27T04:49:01.931Z,99.64
2019-03-27T04:50:01.938Z,99.54
2019-03-27T04:51:54.858Z,99.26
2019-03-27T04:52:54.849Z,99.44
2019-03-27T04:54:47.745Z,99.54
2019-03-27T04:55:47.756Z,99.44
2019-03-27T04:57:40.658Z,99.73
2019-03-27T04:58:40.662Z,99.83
2019-03-27T05:00:33.557Z,99.69
2019-03-27T05:01:33.566Z,99.64
2019-03-27T05:03:26.471Z,99.69
2019-03-27T05:04:26.473Z,99.54
2019-03-27T05:06:19.378Z,99.26
2019-03-27T05:07:19.381Z,99.59
2019-03-27T05:09:12.288Z,99.64
2019-03-27T05:10:12.356Z,99.50
2019-03-27T05:12:05.191Z,99.78
2019-03-27T05:13:05.194Z,99.21
2019-03-27T05:14:58.089Z,98.93
2019-03-27T05:15:58.099Z,98.83
2019-03-27T05:17:51.016Z,99.26
2019-03-27T05:18:51.010Z,98.79
2019-03-27T05:20:43.908Z,99.73
2019-03-27T05:21:43.916Z,98.97
2019-03-27T05:23:36.823Z,99.54
2019-03-27T05:24:36.822Z,99.54
2019-03-27T05:26:29.726Z,99.99
2019-03-27T05:27:29.728Z,99.92
2019-03-27T05:29:22.648Z,99.99
2019-03-27T05:30:22.639Z,99.99
2019-03-27T05:32:15.545Z,99.35
2019-03-27T05:33:15.552Z,99.83
2019-03-27T05:35:08.447Z,99.26
2019-03-27T05:36:08.455Z,99.54
2019-03-27T05:38:01.370Z,99.35
2019-03-27T05:39:01.363Z,99.78
2019-03-27T05:40:54.260Z,99.50
2019-03-27T05:41:54.269Z,99.16
2019-03-27T05:43:47.178Z,99.88
2019-03-27T05:44:47.181Z,99.69
2019-03-27T05:46:40.085Z,99.99
2019-03-27T05:47:40.088Z,99.99
2019-03-27T05:49:32.982Z,99.92
2019-03-27T05:50:32.996Z,99.99
2019-03-27T05:52:25.919Z,99.99
2019-03-27T05:53:25.921Z,99.99
2019-03-27T05:55:18.818Z,99.99
2019-03-27T05:56:18.830Z,99.99
2019-03-27T05:58:12.226Z,99.99
2019-03-27T05:59:12.228Z,99.99
2019-03-27T06:01:05.125Z,99.99
2019-03-27T06:02:05.135Z,99.99
2019-03-27T06:03:58.038Z,99.99
2019-03-27T06:04:58.042Z,99.99
2019-03-27T06:06:50.947Z,99.99
2019-03-27T06:07:50.952Z,99.99
2019-03-27T06:09:43.859Z,99.99
2019-03-27T06:10:43.860Z,99.99
2019-03-27T06:12:36.769Z,99.99
2019-03-27T06:13:36.765Z,99.99
2019-03-27T06:15:29.661Z,99.99
2019-03-27T06:16:29.671Z,99.99
2019-03-27T06:18:22.579Z,99.99
2019-03-27T06:19:22.579Z,99.99
2019-03-27T06:21:15.479Z,99.99
2019-03-27T06:22:15.489Z,99.99
2019-03-27T06:24:08.394Z,99.99
2019-03-27T06:25:08.396Z,99.99
2019-03-27T06:27:01.300Z,99.99
2019-03-27T06:28:01.303Z,99.99
2019-03-27T06:29:54.202Z,99.99
2019-03-27T06:30:54.212Z,99.99
2019-03-27T06:32:47.119Z,99.99
2019-03-27T06:33:47.120Z,99.99
2019-03-27T06:35:40.519Z,99.88
2019-03-27T06:36:40.524Z,98.93
2019-03-27T06:38:33.431Z,99.21
2019-03-27T06:39:33.432Z,98.74
2019-03-27T06:41:26.338Z,99.30
2019-03-27T06:42:26.340Z,99.78
2019-03-27T06:44:19.239Z,99.11
2019-03-27T06:45:19.249Z,98.26
2019-03-27T06:47:12.163Z,97.22
2019-03-27T06:48:21.111Z,95.89
2019-03-27T06:50:05.058Z,95.94
2019-03-27T06:51:05.070Z,96.22
2019-03-27T06:52:57.982Z,96.60
2019-03-27T06:53:57.979Z,95.46
2019-03-27T06:55:50.877Z,94.98
2019-03-27T06:56:50.886Z,94.79
2019-03-27T06:58:53.865Z,94.03
2019-03-27T06:59:43.796Z,93.94
2019-03-27T07:01:36.702Z,92.70
2019-03-27T07:02:36.706Z,92.61
2019-03-27T07:04:29.605Z,92.70
2019-03-27T07:05:29.616Z,93.65
2019-03-27T07:07:22.526Z,92.99
2019-03-27T07:08:22.528Z,92.51
2019-03-27T07:10:15.429Z,92.99
2019-03-27T07:11:15.439Z,91.94
2019-03-27T07:13:08.348Z,90.84
2019-03-27T07:14:08.350Z,90.84
2019-03-27T07:16:01.252Z,90.94
2019-03-27T07:17:01.262Z,90.28
2019-03-27T07:18:54.168Z,90.18
2019-03-27T07:19:54.176Z,90.08
2019-03-27T07:21:47.079Z,89.37
2019-03-27T07:22:47.083Z,89.66
2019-03-27T07:24:39.983Z,89.51
2019-03-27T07:25:40.006Z,89.61
2019-03-27T07:27:32.903Z,89.23
2019-03-27T07:28:32.911Z,89.04
2019-03-27T07:30:26.296Z,89.04
2019-03-27T07:31:26.309Z,88.56
2019-03-27T07:33:19.218Z,89.27
2019-03-27T07:34:19.222Z,89.08
2019-03-27T07:36:12.197Z,86.90
2019-03-27T07:37:12.133Z,86.13
2019-03-27T07:39:10.892Z,85.37
2019-03-27T07:40:05.048Z,85.47
2019-03-27T07:41:57.960Z,84.08
2019-03-27T07:42:57.965Z,83.65
2019-03-27T07:44:50.864Z,83.18
2019-03-27T07:45:50.877Z,83.65
2019-03-27T07:47:43.787Z,83.28
2019-03-27T07:48:53.705Z,83.09
2019-03-27T07:50:36.695Z,83.85
2019-03-27T07:51:36.705Z,84.00
2019-03-27T07:53:29.613Z,85.42
2019-03-27T07:54:29.617Z,85.52
2019-03-27T07:56:22.517Z,85.66
2019-03-27T07:57:22.530Z,85.94
2019-03-27T07:59:15.446Z,85.08
2019-03-27T08:00:15.444Z,84.61
2019-03-27T08:02:08.355Z,85.18
2019-03-27T08:03:08.362Z,84.61
2019-03-27T08:05:01.264Z,83.85
2019-03-27T08:06:01.277Z,83.65
2019-03-27T08:07:54.190Z,83.41
2019-03-27T08:08:54.194Z,82.84
2019-03-27T08:10:47.104Z,82.08
2019-03-27T08:11:47.110Z,81.98
2019-03-27T08:13:40.023Z,83.03
2019-03-27T08:14:40.028Z,82.27
2019-03-27T08:16:32.932Z,79.99
2019-03-27T08:17:32.941Z,79.41
2019-03-27T08:19:25.848Z,80.36
2019-03-27T08:20:25.855Z,80.46
2019-03-27T08:22:18.820Z,81.13
2019-03-27T08:23:18.776Z,81.60
2019-03-27T08:25:11.676Z,81.93
2019-03-27T08:26:11.688Z,82.41
2019-03-27T08:28:04.598Z,80.31
2019-03-27T08:29:04.603Z,79.74
2019-03-27T08:30:57.509Z,78.98
2019-03-27T08:31:57.518Z,79.22
2019-03-27T08:33:50.431Z,79.70
2019-03-27T08:34:50.434Z,79.13
2019-03-27T08:36:43.342Z,78.59
2019-03-27T08:37:43.350Z,78.56
2019-03-27T08:39:36.248Z,79.70
2019-03-27T08:40:36.260Z,79.80
2019-03-27T08:42:29.171Z,80.69
2019-03-27T08:43:29.176Z,80.41
2019-03-27T08:45:22.078Z,79.64
2019-03-27T08:46:22.090Z,78.59
2019-03-27T08:48:14.999Z,78.56
2019-03-27T08:49:21.999Z,79.32
2019-03-27T08:51:07.907Z,79.22
2019-03-27T08:52:07.923Z,79.41
2019-03-27T08:54:00.834Z,79.70
2019-03-27T08:55:00.841Z,77.80
2019-03-27T08:56:53.752Z,77.13
2019-03-27T08:57:53.758Z,77.42
2019-03-27T08:59:46.658Z,77.98
2019-03-27T09:00:46.671Z,78.56
2019-03-27T09:02:39.580Z,79.46
2019-03-27T09:03:39.583Z,79.36
2019-03-27T09:05:32.486Z,77.83
2019-03-27T09:06:33.851Z,77.83
2019-03-27T09:08:25.404Z,77.74
2019-03-27T09:09:25.411Z,77.55
2019-03-27T09:11:18.315Z,76.40
2019-03-27T09:12:18.325Z,75.26
2019-03-27T09:14:11.249Z,75.78
2019-03-27T09:15:11.244Z,75.78
2019-03-27T09:17:04.153Z,75.78
2019-03-27T09:18:04.154Z,76.35
2019-03-27T09:19:57.056Z,76.35
2019-03-27T09:20:57.069Z,75.96
2019-03-27T09:22:49.984Z,74.44
2019-03-27T09:23:49.986Z,73.96
2019-03-27T09:25:42.892Z,74.86
2019-03-27T09:26:42.905Z,74.86
2019-03-27T09:28:35.818Z,75.24
2019-03-27T09:29:35.824Z,73.91
2019-03-27T09:31:28.728Z,73.28
2019-03-27T09:32:28.745Z,73.47
2019-03-27T09:34:21.654Z,73.18
2019-03-27T09:35:21.659Z,73.75
2019-03-27T09:37:14.572Z,70.13
2019-03-27T09:38:14.579Z,70.98
2019-03-27T09:40:07.484Z,70.00
2019-03-27T09:41:07.496Z,69.62
2019-03-27T09:43:00.412Z,70.57
2019-03-27T09:44:00.419Z,70.28
2019-03-27T09:45:53.326Z,71.33
2019-03-27T09:46:53.340Z,70.76
2019-03-27T09:48:46.254Z,70.42
2019-03-27T09:49:49.910Z,69.08
2019-03-27T09:51:39.166Z,69.37
2019-03-27T09:52:39.179Z,68.51
2019-03-27T09:54:32.096Z,69.17
2019-03-27T09:55:32.101Z,68.70
2019-03-27T09:57:25.017Z,68.82
2019-03-27T09:58:25.021Z,68.63
2019-03-27T10:00:17.929Z,68.16
2019-03-27T10:01:17.941Z,67.49
2019-03-27T10:03:10.858Z,66.06
2019-03-27T10:04:10.865Z,66.63
2019-03-27T10:06:03.770Z,65.77
2019-03-27T10:07:03.785Z,65.30
2019-03-27T10:08:56.702Z,65.36
2019-03-27T10:09:56.711Z,66.41
2019-03-27T10:11:49.621Z,68.35
2019-03-27T10:12:49.634Z,67.30
2019-03-27T10:14:42.553Z,66.25
2019-03-27T10:15:42.562Z,65.67
2019-03-27T10:17:35.474Z,67.68
2019-03-27T10:18:35.482Z,65.01
2019-03-27T10:20:28.395Z,64.25
2019-03-27T10:21:28.408Z,64.91
2019-03-27T10:23:21.321Z,65.93
2019-03-27T10:24:21.329Z,65.48
2019-03-27T10:26:14.238Z,66.72
2019-03-27T10:27:14.251Z,65.48
2019-03-27T10:29:07.167Z,66.15
2019-03-27T10:30:07.184Z,67.33
2019-03-27T10:32:00.096Z,65.04
2019-03-27T10:33:00.101Z,63.99
2019-03-27T10:34:53.025Z,63.03
2019-03-27T10:35:53.029Z,63.23
2019-03-27T10:37:45.947Z,62.75
2019-03-27T10:38:45.952Z,64.09
2019-03-27T10:40:38.864Z,63.03
2019-03-27T10:41:38.879Z,64.09
2019-03-27T10:43:31.799Z,65.42
2019-03-27T10:44:31.802Z,66.09
2019-03-27T10:46:24.711Z,64.28
2019-03-27T10:47:24.727Z,62.55
2019-03-27T10:49:17.642Z,62.43
2019-03-27T10:50:18.236Z,63.86
2019-03-27T10:52:10.565Z,64.65
2019-03-27T10:53:10.572Z,64.37
2019-03-27T10:55:03.481Z,64.09
2019-03-27T10:56:03.498Z,62.65
2019-03-27T10:57:56.414Z,60.46
2019-03-27T10:58:56.422Z,61.13
2019-03-27T11:00:49.359Z,61.25
2019-03-27T11:01:49.345Z,61.16
2019-03-27T11:03:42.263Z,62.01
2019-03-27T11:04:42.267Z,61.25
2019-03-27T11:06:35.183Z,60.13
2019-03-27T11:07:35.195Z,59.37
2019-03-27T11:09:28.109Z,59.27
2019-03-27T11:10:28.119Z,59.53
2019-03-27T11:12:21.033Z,59.08
2019-03-27T11:13:21.047Z,59.72
2019-03-27T11:15:13.949Z,59.84
2019-03-27T11:16:13.965Z,59.75
2019-03-27T11:18:06.883Z,59.97
2019-03-27T11:19:06.890Z,58.92
2019-03-27T11:20:59.801Z,57.93
2019-03-27T11:21:59.817Z,57.55
2019-03-27T11:23:52.729Z,57.53
2019-03-27T11:24:52.738Z,57.81
2019-03-27T11:26:45.648Z,59.81
2019-03-27T11:27:45.660Z,58.89
2019-03-27T11:29:38.574Z,57.84
2019-03-27T11:30:38.581Z,58.12
2019-03-27T11:32:31.500Z,59.66
2019-03-27T11:33:31.510Z,59.30
2019-03-27T11:35:24.415Z,58.92
2019-03-27T11:36:24.432Z,58.73
2019-03-27T11:38:17.346Z,56.53
2019-03-27T11:39:17.355Z,55.96
2019-03-27T11:41:12.235Z,56.31
2019-03-27T11:42:10.280Z,55.96
2019-03-27T11:44:03.196Z,55.54
2019-03-27T11:45:03.205Z,55.35
2019-03-27T11:46:56.170Z,57.65
2019-03-27T11:47:56.133Z,58.51
2019-03-27T11:49:49.103Z,57.36
2019-03-27T11:50:49.112Z,57.77
2019-03-27T11:52:42.033Z,57.10
2019-03-27T11:53:42.039Z,57.48
2019-03-27T11:55:34.957Z,56.62
2019-03-27T11:56:34.973Z,57.01
2019-03-27T11:58:27.890Z,55.38
2019-03-27T11:59:27.957Z,54.97
2019-03-27T12:01:20.809Z,56.85
2019-03-27T12:02:20.838Z,57.81
2019-03-27T12:04:13.742Z,58.10
2019-03-27T12:05:13.752Z,59.81
2019-03-27T12:07:06.661Z,59.72
2019-03-27T12:08:06.677Z,60.01
2019-03-27T12:09:59.595Z,59.08
2019-03-27T12:10:59.602Z,58.70
2019-03-27T12:12:52.514Z,57.65
2019-03-27T12:13:52.540Z,57.17
2019-03-27T12:15:45.445Z,56.88
2019-03-27T12:16:45.453Z,57.17
2019-03-27T12:18:38.373Z,58.22
2019-03-27T12:19:38.377Z,57.75
2019-03-27T12:21:31.283Z,57.65
2019-03-27T12:22:31.299Z,57.04
2019-03-27T12:24:24.215Z,57.90
2019-03-27T12:25:24.223Z,58.86
2019-03-27T12:27:17.134Z,57.75
2019-03-27T12:28:17.147Z,58.89
2019-03-27T12:30:10.066Z,59.18
2019-03-27T12:31:10.075Z,57.75
2019-03-27T12:33:02.982Z,57.46
2019-03-27T12:34:02.998Z,56.60
2019-03-27T12:35:55.914Z,56.60
2019-03-27T12:36:55.922Z,57.84
2019-03-27T12:38:48.839Z,56.91
2019-03-27T12:39:48.847Z,56.72
2019-03-27T12:41:42.252Z,56.31
2019-03-27T12:42:42.269Z,57.46
2019-03-27T12:44:35.189Z,57.93
2019-03-27T12:45:35.223Z,57.93
2019-03-27T12:47:28.106Z,58.32
2019-03-27T12:48:28.118Z,57.87
2019-03-27T12:50:21.048Z,56.91
2019-03-27T12:51:21.050Z,57.20
2019-03-27T12:53:13.961Z,55.79
2019-03-27T12:54:13.976Z,55.86
2019-03-27T12:56:07.137Z,55.79
2019-03-27T12:57:07.157Z,56.27
2019-03-27T12:59:00.641Z,55.38
2019-03-27T13:00:01.555Z,54.45
2019-03-27T13:01:52.787Z,55.98
2019-03-27T13:02:52.802Z,55.79
2019-03-27T13:04:45.721Z,54.36
2019-03-27T13:05:45.726Z,53.42
2019-03-27T13:07:49.321Z,54.38
2019-03-27T13:08:38.653Z,54.77
2019-03-27T13:10:31.570Z,54.55
2019-03-27T13:11:31.579Z,54.26
2019-03-27T13:13:24.498Z,54.26
2019-03-27T13:14:24.510Z,55.79
2019-03-27T13:16:17.434Z,54.83
2019-03-27T13:17:17.436Z,55.22
2019-03-27T13:19:10.359Z,52.25
2019-03-27T13:20:10.368Z,51.58
2019-03-27T13:22:03.283Z,52.44
2019-03-27T13:23:03.298Z,53.40
2019-03-27T13:24:56.216Z,52.63
2019-03-27T13:25:56.226Z,53.88
2019-03-27T13:27:49.181Z,55.02
2019-03-27T13:28:49.428Z,54.96
2019-03-27T13:30:42.081Z,54.77
2019-03-27T13:31:42.091Z,55.15
2019-03-27T13:33:35.011Z,52.56
2019-03-27T13:34:35.021Z,52.95
2019-03-27T13:36:27.937Z,51.68
2019-03-27T13:37:27.951Z,51.58
2019-03-27T13:39:20.866Z,51.58
2019-03-27T13:40:20.876Z,51.97
2019-03-27T13:42:13.792Z,51.48
2019-03-27T13:43:13.805Z,51.68
2019-03-27T13:45:06.727Z,53.30
2019-03-27T13:46:06.733Z,53.30
2019-03-27T13:48:00.143Z,52.92
2019-03-27T13:49:00.159Z,52.83
2019-03-27T13:50:53.078Z,53.75
2019-03-27T13:51:53.087Z,54.71
2019-03-27T13:53:45.997Z,54.23
2019-03-27T13:54:46.012Z,53.75
2019-03-27T13:56:38.939Z,53.94
2019-03-27T13:57:38.941Z,54.61
2019-03-27T13:59:31.858Z,55.96
2019-03-27T14:00:31.870Z,56.82
2019-03-27T14:02:24.781Z,55.57
2019-03-27T14:03:24.798Z,55.10
2019-03-27T14:05:17.716Z,54.64
2019-03-27T14:06:17.724Z,54.90
2019-03-27T14:08:10.634Z,55.47
2019-03-27T14:09:10.651Z,55.57
2019-03-27T14:11:03.569Z,57.39
2019-03-27T14:12:03.578Z,56.65
2019-03-27T14:14:10.327Z,55.60
2019-03-27T14:14:56.508Z,56.17
2019-03-27T14:16:49.442Z,56.17
2019-03-27T14:17:49.438Z,55.79
2019-03-27T14:19:42.355Z,55.12
2019-03-27T14:20:42.365Z,55.69
2019-03-27T14:22:35.278Z,56.27
2019-03-27T14:23:35.293Z,55.34
2019-03-27T14:25:28.710Z,54.96
2019-03-27T14:26:28.717Z,55.73
2019-03-27T14:28:21.635Z,56.30
2019-03-27T14:29:21.648Z,56.87
2019-03-27T14:31:14.568Z,55.24
2019-03-27T14:32:14.577Z,54.38
2019-03-27T14:34:07.491Z,53.42
2019-03-27T14:35:07.506Z,54.57
2019-03-27T14:37:00.428Z,56.01
2019-03-27T14:38:00.434Z,56.10
2019-03-27T14:39:53.353Z,53.52
2019-03-27T14:40:53.363Z,54.36
2019-03-27T14:42:46.769Z,54.45
2019-03-27T14:43:46.787Z,54.36
2019-03-27T14:45:39.709Z,54.74
2019-03-27T14:46:39.716Z,55.69
2019-03-27T14:48:32.638Z,55.69
2019-03-27T14:49:32.649Z,55.79
2019-03-27T14:51:25.567Z,54.64
2019-03-27T14:52:25.575Z,55.69
2019-03-27T14:54:18.499Z,55.44
2019-03-27T14:55:18.502Z,54.67
2019-03-27T14:57:11.420Z,54.38
2019-03-27T14:58:11.426Z,54.00
2019-03-27T15:00:04.340Z,55.41
2019-03-27T15:01:04.355Z,55.91
2019-03-27T15:02:57.270Z,56.68
2019-03-27T15:03:57.281Z,55.53
2019-03-27T15:05:50.195Z,55.05
2019-03-27T15:06:50.203Z,54.74
2019-03-27T15:08:43.114Z,54.55
2019-03-27T15:09:43.130Z,55.12
2019-03-27T15:11:36.049Z,54.26
2019-03-27T15:12:36.059Z,53.88
2019-03-27T15:14:29.463Z,53.49
2019-03-27T15:15:29.478Z,54.74
2019-03-27T15:17:22.886Z,54.64
2019-03-27T15:18:22.899Z,54.93
2019-03-27T15:20:16.068Z,54.74
2019-03-27T15:21:15.824Z,54.45
2019-03-27T15:23:08.740Z,55.38
2019-03-27T15:24:08.749Z,55.29
2019-03-27T15:26:01.667Z,55.86
2019-03-27T15:27:01.676Z,54.90
2019-03-27T15:28:54.584Z,55.07
2019-03-27T15:29:54.600Z,55.93
2019-03-27T15:31:47.517Z,56.60
2019-03-27T15:32:47.522Z,57.17
2019-03-27T15:34:40.433Z,57.46
2019-03-27T15:35:40.449Z,56.88
2019-03-27T15:37:33.366Z,56.69
2019-03-27T15:38:33.371Z,57.17
2019-03-27T15:40:26.283Z,56.60
2019-03-27T15:41:26.296Z,56.50
2019-03-27T15:43:19.215Z,57.36
2019-03-27T15:44:19.236Z,57.84
2019-03-27T15:46:12.135Z,57.71
2019-03-27T15:47:12.145Z,58.29
2019-03-27T15:49:05.054Z,59.34
2019-03-27T15:50:05.067Z,59.53
2019-03-27T15:51:58.477Z,59.05
2019-03-27T15:52:58.486Z,59.05
2019-03-27T15:54:51.393Z,59.15
2019-03-27T15:55:51.407Z,58.76
2019-03-27T15:57:44.324Z,58.76
2019-03-27T15:58:44.332Z,59.53
2019-03-27T16:00:37.465Z,59.72
2019-03-27T16:01:37.358Z,59.15
2019-03-27T16:03:30.272Z,59.15
2019-03-27T16:04:30.279Z,58.95
2019-03-27T16:06:23.194Z,59.34
2019-03-27T16:07:23.204Z,59.24
2019-03-27T16:09:16.605Z,59.63
2019-03-27T16:10:18.341Z,59.81
2019-03-27T16:12:09.536Z,59.63
2019-03-27T16:13:09.541Z,60.17
2019-03-27T16:15:02.449Z,60.96
2019-03-27T16:16:02.470Z,60.87
2019-03-27T16:17:55.378Z,60.10
2019-03-27T16:18:55.387Z,60.74
2019-03-27T16:20:48.361Z,61.35
2019-03-27T16:21:48.320Z,60.96
2019-03-27T16:23:41.217Z,60.68
2019-03-27T16:24:41.228Z,60.10
2019-03-27T16:26:34.141Z,60.68
2019-03-27T16:27:34.153Z,60.30
2019-03-27T16:29:27.084Z,59.91
2019-03-27T16:30:27.074Z,59.81
2019-03-27T16:32:19.987Z,59.63
2019-03-27T16:33:20.016Z,59.72
2019-03-27T16:35:12.906Z,59.81
2019-03-27T16:36:12.973Z,59.72
2019-03-27T16:38:06.328Z,59.72
2019-03-27T16:39:06.346Z,59.72
2019-03-27T16:40:59.243Z,60.36
2019-03-27T16:41:59.256Z,61.13
2019-03-27T16:43:52.236Z,61.22
2019-03-27T16:44:52.206Z,61.06
2019-03-27T16:46:45.157Z,61.06
2019-03-27T16:47:45.123Z,61.03
2019-03-27T16:49:38.030Z,60.49
2019-03-27T16:50:38.044Z,61.41
2019-03-27T16:52:30.962Z,61.32
2019-03-27T16:53:30.975Z,61.63
2019-03-27T16:55:23.846Z,61.44
2019-03-27T16:56:23.896Z,60.87
2019-03-27T16:58:16.855Z,61.41
2019-03-27T16:59:16.777Z,60.49
2019-03-27T17:01:09.682Z,61.16
2019-03-27T17:02:09.693Z,61.44
2019-03-27T17:04:02.610Z,61.13
2019-03-27T17:05:02.615Z,61.32
2019-03-27T17:06:55.529Z,61.98
2019-03-27T17:07:55.561Z,61.69
2019-03-27T17:09:48.443Z,61.98
2019-03-27T17:10:48.455Z,61.79
2019-03-27T17:12:41.376Z,61.79
2019-03-27T17:13:41.380Z,62.55
2019-03-27T17:15:34.286Z,62.46
2019-03-27T17:16:34.300Z,62.37
2019-03-27T17:18:28.286Z,62.65
2019-03-27T17:19:27.226Z,63.03
2019-03-27T17:21:20.125Z,62.65
2019-03-27T17:22:20.235Z,62.46
2019-03-27T17:24:13.045Z,62.75
2019-03-27T17:25:13.053Z,62.27
2019-03-27T17:27:05.964Z,62.37
2019-03-27T17:28:06.073Z,62.94
2019-03-27T17:29:58.880Z,62.94
2019-03-27T17:30:58.896Z,62.84
2019-03-27T17:32:51.814Z,63.13
2019-03-27T17:33:51.823Z,62.37
2019-03-27T17:35:44.728Z,62.84
2019-03-27T17:36:44.746Z,62.55
2019-03-27T17:38:37.657Z,63.13
2019-03-27T17:39:37.668Z,63.51
2019-03-27T17:41:31.576Z,63.23
2019-03-27T17:42:31.584Z,63.51
2019-03-27T17:44:24.495Z,63.80
2019-03-27T17:45:24.503Z,64.18
2019-03-27T17:47:17.420Z,63.80
2019-03-27T17:48:17.422Z,63.23
2019-03-27T17:50:10.341Z,63.32
2019-03-27T17:51:10.356Z,63.60
2019-03-27T17:53:03.264Z,63.42
2019-03-27T17:54:03.271Z,63.42
2019-03-27T17:55:56.175Z,63.23
2019-03-27T17:56:56.192Z,63.32
2019-03-27T17:58:49.102Z,63.70
2019-03-27T17:59:49.106Z,62.97
2019-03-27T18:01:42.014Z,63.70
2019-03-27T18:02:42.107Z,63.42
2019-03-27T18:04:34.938Z,63.13
2019-03-27T18:05:34.945Z,63.23
2019-03-27T18:07:27.857Z,63.42
2019-03-27T18:08:27.866Z,63.60
2019-03-27T18:10:20.769Z,63.80
2019-03-27T18:11:20.783Z,63.89
2019-03-27T18:13:13.695Z,63.80
2019-03-27T18:14:13.700Z,63.99
2019-03-27T18:16:06.610Z,63.99
2019-03-27T18:17:06.618Z,63.89
2019-03-27T18:18:59.533Z,64.65
2019-03-27T18:19:59.540Z,64.37
2019-03-27T18:21:52.450Z,64.94
2019-03-27T18:22:52.459Z,65.23
2019-03-27T18:24:45.365Z,65.23
2019-03-27T18:25:45.379Z,65.33
2019-03-27T18:27:38.291Z,64.65
2019-03-27T18:28:38.299Z,64.65
2019-03-27T18:30:31.208Z,64.94
2019-03-27T18:31:31.218Z,65.04
2019-03-27T18:33:24.140Z,65.52